Time,TemperatureF,DewpointF,PressureIn,WindDirection,WindDirectionDegrees,WindSpeedMPH,WindSpeedGustMPH,Humidity,HourlyPrecipIn,Conditions,Clouds,dailyrainin,SoftwareType,DateUTC
2013-05-23 00:34:00,52.7,46.7,28.60,NNW,338,12.7,12.7,80,0.00,,,0.00,WUHU216HW,2013-05-23 05:34:00,
2013-05-23 00:39:00,52.7,46.7,28.60,North,0,12.5,12.7,80,0.00,,,0.00,WUHU216HW,2013-05-23 05:39:00,
2013-05-23 00:44:00,52.7,46.7,28.60,NNW,338,15.2,15.2,80,0.00,,,0.00,WUHU216HW,2013-05-23 05:44:00,
2013-05-23 00:49:00,52.7,47.0,28.60,North,0,12.3,15.2,81,0.00,,,0.00,WUHU216HW,2013-05-23 05:49:00,
2013-05-23 00:54:00,52.5,46.8,28.60,NNW,338,16.5,16.5,81,0.00,,,0.00,WUHU216HW,2013-05-23 05:54:00,
2013-05-23 00:59:00,52.5,46.8,28.60,NNW,338,9.3,16.5,81,0.00,,,0.00,WUHU216HW,2013-05-23 05:59:00,
2013-05-23 01:04:00,52.5,46.8,28.60,North,0,12.0,14.7,81,0.00,,,0.00,WUHU216HW,2013-05-23 06:04:00,
2013-05-23 01:09:00,52.3,46.7,28.60,NNW,338,14.9,14.9,81,0.00,,,0.00,WUHU216HW,2013-05-23 06:09:00,
2013-05-23 01:14:00,52.3,46.7,28.60,NNW,338,10.7,14.9,81,0.00,,,0.00,WUHU216HW,2013-05-23 06:14:00,
2013-05-23 01:19:00,52.3,46.7,28.60,NNW,338,14.0,14.0,81,0.00,,,0.00,WUHU216HW,2013-05-23 06:19:00,
2013-05-23 01:24:00,52.3,46.7,28.60,NNW,338,14.0,14.0,81,0.00,,,0.00,WUHU216HW,2013-05-23 06:24:00,
2013-05-23 01:29:00,52.1,46.2,28.60,NNW,338,11.6,14.0,80,0.00,,,0.00,WUHU216HW,2013-05-23 06:29:00,
2013-05-23 01:34:00,51.9,46.0,28.60,NNW,338,6.4,14.0,80,0.00,,,0.00,WUHU216HW,2013-05-23 06:34:00,
2013-05-23 01:39:00,51.8,45.8,28.60,NNW,338,12.3,14.0,80,0.00,,,0.00,WUHU216HW,2013-05-23 06:39:00,
2013-05-23 01:44:00,51.6,45.9,28.61,North,0,8.5,12.3,81,0.00,,,0.00,WUHU216HW,2013-05-23 06:44:00,
2013-05-23 01:50:00,51.6,45.9,28.61,NNW,338,16.5,16.5,81,0.00,,,0.00,WUHU216HW,2013-05-23 06:50:00,
2013-05-23 01:55:00,51.6,45.9,28.60,North,0,8.7,16.5,81,0.00,,,0.00,WUHU216HW,2013-05-23 06:55:00,
2013-05-23 02:00:00,51.9,46.3,28.61,NNW,338,6.7,13.6,81,0.00,,,0.00,WUHU216HW,2013-05-23 07:00:00,
2013-05-23 02:05:00,51.8,46.1,28.61,NNW,338,12.0,13.6,81,0.00,,,0.00,WUHU216HW,2013-05-23 07:05:00,
2013-05-23 02:10:00,51.8,46.1,28.61,NNW,338,9.1,12.0,81,0.00,,,0.00,WUHU216HW,2013-05-23 07:10:00,
2013-05-23 02:15:00,51.9,46.3,28.61,North,0,9.1,12.0,81,0.00,,,0.00,WUHU216HW,2013-05-23 07:15:00,
2013-05-23 02:20:00,51.9,46.3,28.61,NNW,338,7.8,9.1,81,0.00,,,0.00,WUHU216HW,2013-05-23 07:20:00,
2013-05-23 02:25:00,51.9,46.3,28.61,NNW,338,11.4,11.4,81,0.00,,,0.00,WUHU216HW,2013-05-23 07:25:00,
2013-05-23 02:30:00,51.9,46.3,28.61,NNW,338,11.8,11.8,81,0.00,,,0.00,WUHU216HW,2013-05-23 07:30:00,
2013-05-23 02:35:00,52.1,46.5,28.61,NNW,338,10.5,17.4,81,0.00,,,0.00,WUHU216HW,2013-05-23 07:35:00,
2013-05-23 02:40:00,52.1,46.5,28.61,North,0,13.4,17.4,81,0.00,,,0.00,WUHU216HW,2013-05-23 07:40:00,
2013-05-23 02:45:00,52.1,46.5,28.61,NNW,338,9.6,13.4,81,0.00,,,0.00,WUHU216HW,2013-05-23 07:45:00,
2013-05-23 02:50:00,52.1,46.5,28.61,NNW,338,14.0,15.4,81,0.00,,,0.00,WUHU216HW,2013-05-23 07:50:00,
2013-05-23 02:56:00,52.1,46.5,28.62,NNW,338,14.0,15.4,81,0.00,,,0.00,WUHU216HW,2013-05-23 07:56:00,
2013-05-23 03:01:00,52.1,46.5,28.61,NNW,338,15.2,15.4,81,0.00,,,0.00,WUHU216HW,2013-05-23 08:01:00,
2013-05-23 03:07:00,52.1,46.5,28.62,North,0,7.3,15.2,81,0.00,,,0.00,WUHU216HW,2013-05-23 08:07:00,
2013-05-23 03:12:00,52.1,46.5,28.62,NNW,338,16.1,16.1,81,0.00,,,0.00,WUHU216HW,2013-05-23 08:12:00,
2013-05-23 03:17:00,52.1,46.5,28.62,North,0,7.8,16.1,81,0.00,,,0.00,WUHU216HW,2013-05-23 08:17:00,
2013-05-23 03:22:00,52.3,46.7,28.62,NW,315,14.7,19.0,81,0.00,,,0.00,WUHU216HW,2013-05-23 08:22:00,
2013-05-23 03:27:00,52.1,46.5,28.63,NNW,338,14.7,19.0,81,0.00,,,0.00,WUHU216HW,2013-05-23 08:27:00,
2013-05-23 03:32:00,52.3,46.7,28.63,NNW,338,16.7,16.7,81,0.00,,,0.00,WUHU216HW,2013-05-23 08:32:00,
2013-05-23 03:37:00,52.3,46.7,28.63,North,0,8.9,16.7,81,0.00,,,0.00,WUHU216HW,2013-05-23 08:37:00,
2013-05-23 03:42:00,52.3,46.7,28.63,North,0,12.0,16.7,81,0.00,,,0.00,WUHU216HW,2013-05-23 08:42:00,
2013-05-23 03:47:00,52.3,46.7,28.63,NNW,338,16.7,16.7,81,0.00,,,0.00,WUHU216HW,2013-05-23 08:47:00,
2013-05-23 03:52:00,52.1,46.5,28.64,NNW,338,13.8,16.7,81,0.00,,,0.00,WUHU216HW,2013-05-23 08:52:00,
2013-05-23 03:57:00,52.1,46.5,28.64,NNW,338,8.2,16.7,81,0.00,,,0.00,WUHU216HW,2013-05-23 08:57:00,
2013-05-23 04:02:00,52.1,46.5,28.64,North,0,10.0,13.8,81,0.00,,,0.00,WUHU216HW,2013-05-23 09:02:00,
2013-05-23 04:07:00,52.1,46.5,28.64,North,0,12.0,12.0,81,0.00,,,0.00,WUHU216HW,2013-05-23 09:07:00,
2013-05-23 04:12:00,51.9,46.3,28.64,North,0,10.7,12.0,81,0.00,,,0.00,WUHU216HW,2013-05-23 09:12:00,
2013-05-23 04:17:00,51.9,46.3,28.64,North,0,6.4,12.0,81,0.00,,,0.00,WUHU216HW,2013-05-23 09:17:00,
2013-05-23 04:22:00,51.9,46.6,28.65,NNE,23,13.4,13.4,82,0.00,,,0.00,WUHU216HW,2013-05-23 09:22:00,
2013-05-23 04:27:00,51.9,46.6,28.65,North,0,15.4,15.4,82,0.00,,,0.00,WUHU216HW,2013-05-23 09:27:00,
2013-05-23 04:32:00,51.8,46.4,28.65,North,0,10.2,15.4,82,0.00,,,0.00,WUHU216HW,2013-05-23 09:32:00,
2013-05-23 04:37:00,51.8,46.4,28.65,North,0,7.3,10.2,82,0.00,,,0.00,WUHU216HW,2013-05-23 09:37:00,
2013-05-23 04:42:00,51.6,46.2,28.66,North,0,12.0,12.9,82,0.00,,,0.00,WUHU216HW,2013-05-23 09:42:00,
2013-05-23 04:47:00,51.6,46.2,28.66,North,0,8.2,12.9,82,0.00,,,0.00,WUHU216HW,2013-05-23 09:47:00,
2013-05-23 04:52:00,51.4,46.1,28.66,North,0,13.6,16.1,82,0.00,,,0.00,WUHU216HW,2013-05-23 09:52:00,
2013-05-23 04:57:00,51.6,46.2,28.66,North,0,14.3,16.1,82,0.00,,,0.00,WUHU216HW,2013-05-23 09:57:00,
2013-05-23 05:02:00,51.4,46.1,28.66,North,0,7.6,15.6,82,0.00,,,0.00,WUHU216HW,2013-05-23 10:02:00,
2013-05-23 05:07:00,51.4,46.1,28.67,North,0,6.7,10.5,82,0.00,,,0.00,WUHU216HW,2013-05-23 10:07:00,
2013-05-23 05:12:00,51.4,46.1,28.67,NNW,338,14.0,14.0,82,0.00,,,0.00,WUHU216HW,2013-05-23 10:12:00,
2013-05-23 05:17:00,51.4,46.4,28.67,NNW,338,13.1,14.0,83,0.00,,,0.00,WUHU216HW,2013-05-23 10:17:00,
2013-05-23 05:22:00,51.4,46.4,28.67,NNW,338,19.9,19.9,83,0.00,,,0.00,WUHU216HW,2013-05-23 10:22:00,
2013-05-23 05:27:00,51.4,46.1,28.68,North,0,7.8,19.9,82,0.00,,,0.00,WUHU216HW,2013-05-23 10:27:00,
2013-05-23 05:32:00,51.0,45.7,28.68,NNE,23,11.1,13.1,82,0.00,,,0.00,WUHU216HW,2013-05-23 10:32:00,
2013-05-23 05:37:00,50.9,45.5,28.68,North,0,11.1,17.0,82,0.00,,,0.00,WUHU216HW,2013-05-23 10:37:00,
2013-05-23 05:42:00,50.9,45.5,28.68,North,0,8.7,17.0,82,0.00,,,0.00,WUHU216HW,2013-05-23 10:42:00,
2013-05-23 05:47:00,50.9,45.5,28.68,North,0,6.9,16.3,82,0.00,,,0.00,WUHU216HW,2013-05-23 10:47:00,
2013-05-23 05:52:00,50.9,45.5,28.68,North,0,10.9,16.3,82,0.00,,,0.00,WUHU216HW,2013-05-23 10:52:00,
2013-05-23 05:57:00,50.7,45.3,28.69,NNW,338,10.5,10.9,82,0.00,,,0.00,WUHU216HW,2013-05-23 10:57:00,
2013-05-23 06:02:00,50.7,45.3,28.69,North,0,7.6,10.9,82,0.00,,,0.00,WUHU216HW,2013-05-23 11:02:00,
2013-05-23 06:07:00,50.7,45.3,28.69,North,0,10.5,10.7,82,0.00,,,0.00,WUHU216HW,2013-05-23 11:07:00,
2013-05-23 06:12:00,50.5,45.5,28.69,North,0,10.5,10.7,83,0.00,,,0.00,WUHU216HW,2013-05-23 11:12:00,
2013-05-23 06:17:00,50.5,45.5,28.69,North,0,12.7,12.7,83,0.00,,,0.00,WUHU216HW,2013-05-23 11:17:00,
2013-05-23 06:22:00,50.5,45.5,28.70,North,0,11.1,12.7,83,0.00,,,0.00,WUHU216HW,2013-05-23 11:22:00,
2013-05-23 06:27:00,50.3,45.6,28.70,North,0,11.4,11.4,84,0.00,,,0.00,WUHU216HW,2013-05-23 11:27:00,
2013-05-23 06:32:00,50.3,45.6,28.70,North,0,8.9,11.4,84,0.00,,,0.00,WUHU216HW,2013-05-23 11:32:00,
2013-05-23 06:37:00,50.1,45.4,28.70,North,0,12.5,12.5,84,0.00,,,0.00,WUHU216HW,2013-05-23 11:37:00,
2013-05-23 06:42:00,50.1,45.4,28.71,NNE,23,7.8,12.5,84,0.00,,,0.00,WUHU216HW,2013-05-23 11:42:00,
2013-05-23 06:47:00,50.3,45.6,28.71,NNE,23,9.6,10.9,84,0.00,,,0.00,WUHU216HW,2013-05-23 11:47:00,
2013-05-23 06:52:00,50.1,45.4,28.71,NNE,23,7.1,9.8,84,0.00,,,0.00,WUHU216HW,2013-05-23 11:52:00,
2013-05-23 06:57:00,50.3,45.6,28.71,North,0,9.1,9.3,84,0.00,,,0.00,WUHU216HW,2013-05-23 11:57:00,
2013-05-23 07:02:00,50.5,45.8,28.72,North,0,9.3,10.9,84,0.00,,,0.00,WUHU216HW,2013-05-23 12:02:00,
2013-05-23 07:07:00,50.5,45.5,28.72,North,0,8.5,10.9,83,0.00,,,0.00,WUHU216HW,2013-05-23 12:07:00,
2013-05-23 07:12:00,50.7,45.3,28.73,NNE,23,12.5,12.5,82,0.00,,,0.00,WUHU216HW,2013-05-23 12:12:00,
2013-05-23 07:18:00,50.7,45.3,28.72,North,0,10.2,12.5,82,0.00,,,0.00,WUHU216HW,2013-05-23 12:18:00,
2013-05-23 07:23:00,50.7,45.3,28.72,North,0,9.1,12.5,82,0.00,,,0.00,WUHU216HW,2013-05-23 12:23:00,
2013-05-23 07:28:00,50.7,45.3,28.73,North,0,7.8,11.8,82,0.00,,,0.00,WUHU216HW,2013-05-23 12:28:00,
2013-05-23 07:33:00,50.7,45.3,28.73,North,0,7.3,8.9,82,0.00,,,0.00,WUHU216HW,2013-05-23 12:33:00,
2013-05-23 07:38:00,50.7,45.3,28.74,NNE,23,7.1,8.9,82,0.00,,,0.00,WUHU216HW,2013-05-23 12:38:00,
2013-05-23 07:43:00,50.9,45.5,28.73,North,0,7.3,9.6,82,0.00,,,0.00,WUHU216HW,2013-05-23 12:43:00,
2013-05-23 07:48:00,51.0,45.7,28.74,North,0,9.8,9.8,82,0.00,,,0.00,WUHU216HW,2013-05-23 12:48:00,
2013-05-23 07:53:00,51.0,45.7,28.74,NNE,23,7.8,9.8,82,0.00,,,0.00,WUHU216HW,2013-05-23 12:53:00,
2013-05-23 07:58:00,51.0,45.7,28.74,North,0,7.1,9.1,82,0.00,,,0.00,WUHU216HW,2013-05-23 12:58:00,
2013-05-23 08:03:00,51.4,46.1,28.74,NNE,23,9.1,9.1,82,0.00,,,0.00,WUHU216HW,2013-05-23 13:03:00,
2013-05-23 08:08:00,51.6,46.5,28.74,NNE,23,7.3,10.0,83,0.00,,,0.00,WUHU216HW,2013-05-23 13:08:00,
2013-05-23 08:13:00,51.6,46.2,28.75,North,0,10.2,12.3,82,0.00,,,0.00,WUHU216HW,2013-05-23 13:13:00,
2013-05-23 08:18:00,51.6,46.2,28.75,North,0,12.9,12.9,82,0.00,,,0.00,WUHU216HW,2013-05-23 13:18:00,
2013-05-23 08:23:00,51.8,46.4,28.75,North,0,8.9,12.9,82,0.00,,,0.00,WUHU216HW,2013-05-23 13:23:00,
2013-05-23 08:28:00,51.9,46.6,28.76,NNE,23,9.6,12.0,82,0.00,,,0.00,WUHU216HW,2013-05-23 13:28:00,
2013-05-23 08:33:00,51.9,46.6,28.76,NNE,23,10.7,12.0,82,0.00,,,0.00,WUHU216HW,2013-05-23 13:33:00,
2013-05-23 08:38:00,52.1,46.5,28.76,North,0,8.0,11.8,81,0.00,,,0.00,WUHU216HW,2013-05-23 13:38:00,
2013-05-23 08:43:00,52.1,46.2,28.76,North,0,11.1,12.7,80,0.00,,,0.00,WUHU216HW,2013-05-23 13:43:00,
2013-05-23 08:48:00,52.3,46.4,28.76,NNE,23,7.3,12.7,80,0.00,,,0.00,WUHU216HW,2013-05-23 13:48:00,
2013-05-23 08:53:00,52.5,46.5,28.76,North,0,9.3,11.6,80,0.00,,,0.00,WUHU216HW,2013-05-23 13:53:00,
2013-05-23 08:58:00,52.7,46.4,28.78,NNE,23,7.8,12.9,79,0.00,,,0.00,WUHU216HW,2013-05-23 13:58:00,
2013-05-23 09:03:00,52.7,46.4,28.78,NNE,23,6.7,12.9,79,0.00,,,0.00,WUHU216HW,2013-05-23 14:03:00,
2013-05-23 09:08:00,52.8,46.2,28.78,NNE,23,8.7,10.7,78,0.00,,,0.00,WUHU216HW,2013-05-23 14:08:00,
2013-05-23 09:13:00,52.8,46.2,28.78,NE,45,9.6,10.7,78,0.00,,,0.00,WUHU216HW,2013-05-23 14:13:00,
2013-05-23 09:18:00,53.2,46.2,28.78,NE,45,7.3,9.6,78,0.00,,,0.00,WUHU216HW,2013-05-23 14:18:00,
2013-05-23 09:23:00,53.2,46.5,28.78,NE,45,8.0,8.2,78,0.00,,,0.00,WUHU216HW,2013-05-23 14:23:00,
2013-05-23 09:28:00,53.4,46.7,28.78,NE,45,6.7,8.0,78,0.00,,,0.00,WUHU216HW,2013-05-23 14:28:00,
2013-05-23 09:33:00,53.4,46.7,28.78,NNE,23,9.3,12.0,78,0.00,,,0.00,WUHU216HW,2013-05-23 14:33:00,
2013-05-23 09:38:00,53.4,46.7,28.79,NNE,23,7.6,12.0,78,0.00,,,0.00,WUHU216HW,2013-05-23 14:38:00,
2013-05-23 09:43:00,53.4,46.7,28.79,NNE,23,12.5,12.5,78,0.00,,,0.00,WUHU216HW,2013-05-23 14:43:00,
2013-05-23 09:48:00,53.4,46.7,28.79,NNE,23,8.5,12.5,78,0.00,,,0.00,WUHU216HW,2013-05-23 14:48:00,
2013-05-23 09:53:00,53.4,46.7,28.79,NNE,23,7.6,9.3,78,0.00,,,0.00,WUHU216HW,2013-05-23 14:53:00,
2013-05-23 09:58:00,53.7,47.1,28.79,NNE,23,6.7,9.6,78,0.00,,,0.00,WUHU216HW,2013-05-23 14:58:00,
2013-05-23 10:03:00,53.7,47.1,28.79,NE,45,11.6,11.8,78,0.00,,,0.00,WUHU216HW,2013-05-23 15:03:00,
2013-05-23 10:08:00,53.9,47.2,28.78,NNE,23,11.8,11.8,78,0.00,,,0.00,WUHU216HW,2013-05-23 15:08:00,
2013-05-23 10:13:00,53.9,47.2,28.78,NE,45,12.3,12.3,78,0.00,,,0.00,WUHU216HW,2013-05-23 15:13:00,
2013-05-23 10:18:00,54.3,47.4,28.78,NE,45,6.0,12.3,78,0.00,,,0.00,WUHU216HW,2013-05-23 15:18:00,
2013-05-23 10:23:00,54.3,47.5,28.78,NE,45,2.9,8.2,78,0.00,,,0.00,WUHU216HW,2013-05-23 15:23:00,
2013-05-23 10:28:00,54.5,47.4,28.78,NE,45,10.5,10.5,77,0.00,,,0.00,WUHU216HW,2013-05-23 15:28:00,
2013-05-23 10:33:00,55.2,48.0,28.78,NNE,23,6.9,10.5,77,0.00,,,0.00,WUHU216HW,2013-05-23 15:33:00,
2013-05-23 10:38:00,55.5,48.0,28.78,NNE,23,7.8,9.8,76,0.00,,,0.00,WUHU216HW,2013-05-23 15:38:00,
2013-05-23 10:43:00,55.5,48.0,28.79,NNE,23,9.3,13.1,76,0.00,,,0.00,WUHU216HW,2013-05-23 15:43:00,
2013-05-23 10:48:00,55.9,47.9,28.79,NNE,23,10.2,14.3,76,0.00,,,0.00,WUHU216HW,2013-05-23 15:48:00,
2013-05-23 10:53:00,55.5,48.0,28.79,NNE,23,14.9,14.9,76,0.00,,,0.00,WUHU216HW,2013-05-23 15:53:00,
2013-05-23 10:58:00,55.4,47.9,28.78,NNE,23,7.8,14.9,76,0.00,,,0.00,WUHU216HW,2013-05-23 15:58:00,
2013-05-23 11:03:00,55.9,48.4,28.79,NNE,23,10.2,14.9,76,0.00,,,0.00,WUHU216HW,2013-05-23 16:03:00,
2013-05-23 11:08:00,55.9,48.0,28.79,North,0,9.8,13.1,75,0.00,,,0.00,WUHU216HW,2013-05-23 16:08:00,
2013-05-23 11:13:00,56.1,48.2,28.78,ENE,68,10.7,10.7,75,0.00,,,0.00,WUHU216HW,2013-05-23 16:13:00,
2013-05-23 11:18:00,56.8,48.5,28.78,NNE,23,0.0,10.7,75,0.00,,,0.00,WUHU216HW,2013-05-23 16:18:00,
2013-05-23 11:23:00,57.5,49.2,28.78,NNE,23,1.7,10.5,74,0.00,,,0.00,WUHU216HW,2013-05-23 16:23:00,
2013-05-23 11:28:00,58.8,50.9,28.79,North,0,11.8,11.8,75,0.00,,,0.00,WUHU216HW,2013-05-23 16:28:00,
2013-05-23 11:33:00,59.3,50.0,28.79,NE,45,12.7,12.7,71,0.00,,,0.00,WUHU216HW,2013-05-23 16:33:00,
2013-05-23 11:38:00,59.5,49.8,28.79,NNE,23,6.4,12.7,70,0.00,,,0.00,WUHU216HW,2013-05-23 16:38:00,
2013-05-23 11:44:00,59.5,49.8,28.79,NE,45,4.4,12.7,70,0.00,,,0.00,WUHU216HW,2013-05-23 16:44:00,
2013-05-23 11:49:00,60.0,49.9,28.78,NE,45,17.6,17.6,69,0.00,,,0.00,WUHU216HW,2013-05-23 16:49:00,
2013-05-23 11:54:00,60.6,50.0,28.78,NE,45,0.0,17.6,68,0.00,,,0.00,WUHU216HW,2013-05-23 16:54:00,
2013-05-23 11:59:00,60.9,50.0,28.78,NNE,23,7.3,17.6,67,0.00,,,0.00,WUHU216HW,2013-05-23 16:59:00,
2013-05-23 12:04:00,61.3,50.3,28.78,NNE,23,8.9,8.9,67,0.00,,,0.00,WUHU216HW,2013-05-23 17:04:00,
2013-05-23 12:09:00,61.5,50.0,28.78,NNE,23,8.2,8.9,66,0.00,,,0.00,WUHU216HW,2013-05-23 17:09:00,
2013-05-23 12:14:00,61.8,50.8,28.77,NNE,23,9.1,9.1,67,0.00,,,0.00,WUHU216HW,2013-05-23 17:14:00,
2013-05-23 12:19:00,62.0,50.1,28.78,NE,45,8.5,12.9,65,0.00,,,0.00,WUHU216HW,2013-05-23 17:19:00,
2013-05-23 12:24:00,62.4,50.8,28.77,NE,45,9.1,12.9,66,0.00,,,0.00,WUHU216HW,2013-05-23 17:24:00,
2013-05-23 12:29:00,62.4,49.6,28.77,NNE,23,12.0,12.0,63,0.00,,,0.00,WUHU216HW,2013-05-23 17:29:00,
2013-05-23 12:34:00,62.4,49.6,28.76,NNE,23,7.1,13.1,64,0.00,,,0.00,WUHU216HW,2013-05-23 17:34:00,
2013-05-23 12:39:00,62.7,50.3,28.76,NE,45,8.2,13.4,64,0.00,,,0.00,WUHU216HW,2013-05-23 17:39:00,
2013-05-23 12:44:00,63.3,50.8,28.76,NNE,23,11.1,13.4,64,0.00,,,0.00,WUHU216HW,2013-05-23 17:44:00,
2013-05-23 12:49:00,63.5,50.2,28.76,NNE,23,12.7,12.7,62,0.00,,,0.00,WUHU216HW,2013-05-23 17:49:00,
2013-05-23 12:54:00,63.6,50.3,28.76,NNE,23,8.5,12.7,62,0.00,,,0.00,WUHU216HW,2013-05-23 17:54:00,
2013-05-23 12:59:00,64.2,50.8,28.76,NNE,23,9.8,11.6,62,0.00,,,0.00,WUHU216HW,2013-05-23 17:59:00,
2013-05-23 13:04:00,64.5,51.2,28.76,North,0,0.0,11.6,62,0.00,,,0.00,WUHU216HW,2013-05-23 18:04:00,
2013-05-23 13:09:00,64.9,50.7,28.76,East,90,4.9,9.8,60,0.00,,,0.00,WUHU216HW,2013-05-23 18:09:00,
2013-05-23 13:14:00,65.1,50.4,28.76,NE,45,13.4,13.4,59,0.00,,,0.00,WUHU216HW,2013-05-23 18:14:00,
2013-05-23 13:19:00,65.3,50.1,28.77,ESE,113,0.0,13.4,58,0.00,,,0.00,WUHU216HW,2013-05-23 18:19:00,
2013-05-23 13:24:00,65.4,50.2,28.77,NE,45,8.5,13.4,58,0.00,,,0.00,WUHU216HW,2013-05-23 18:24:00,
2013-05-23 13:29:00,66.0,50.3,28.76,NNE,23,0.6,8.7,57,0.00,,,0.00,WUHU216HW,2013-05-23 18:29:00,
2013-05-23 13:34:00,66.3,50.1,28.76,ENE,68,0.0,6.4,56,0.00,,,0.00,WUHU216HW,2013-05-23 18:34:00,
2013-05-23 13:39:00,66.9,50.1,28.76,NNE,23,17.4,17.4,55,0.00,,,0.00,WUHU216HW,2013-05-23 18:39:00,
2013-05-23 13:44:00,67.1,49.3,28.77,NNE,23,17.4,17.4,53,0.00,,,0.00,WUHU216HW,2013-05-23 18:44:00,
2013-05-23 13:49:00,67.4,49.7,28.77,SSE,158,0.0,17.4,53,0.00,,,0.00,WUHU216HW,2013-05-23 18:49:00,
2013-05-23 13:54:00,67.6,49.8,28.77,NNE,23,10.7,17.4,53,0.00,,,0.00,WUHU216HW,2013-05-23 18:54:00,
2013-05-23 13:59:00,67.8,49.5,28.77,East,90,1.5,10.7,52,0.00,,,0.00,WUHU216HW,2013-05-23 18:59:00,
2013-05-23 14:04:00,67.8,49.5,28.77,NNE,23,5.8,9.1,52,0.00,,,0.00,WUHU216HW,2013-05-23 19:04:00,
2013-05-23 14:10:00,68.0,49.7,28.77,NNE,23,5.1,7.1,52,0.00,,,0.00,WUHU216HW,2013-05-23 19:10:00,
2013-05-23 14:15:00,68.5,50.1,28.78,NE,45,0.0,7.3,52,0.00,,,0.00,WUHU216HW,2013-05-23 19:15:00,
2013-05-23 14:20:00,68.9,50.5,28.78,NE,45,0.0,7.3,52,0.00,,,0.00,WUHU216HW,2013-05-23 19:20:00,
2013-05-23 14:25:00,69.2,49.8,28.78,NNE,23,12.0,12.0,50,0.00,,,0.00,WUHU216HW,2013-05-23 19:25:00,
2013-05-23 14:30:00,69.4,49.4,28.78,North,0,20.1,20.1,49,0.00,,,0.00,WUHU216HW,2013-05-23 19:30:00,
2013-05-23 14:35:00,69.0,49.7,28.78,NE,45,7.1,20.1,50,0.00,,,0.00,WUHU216HW,2013-05-23 19:35:00,
2013-05-23 14:40:00,68.9,50.0,28.78,NNE,23,10.5,20.1,51,0.00,,,0.00,WUHU216HW,2013-05-23 19:40:00,
2013-05-23 14:45:00,68.9,50.0,28.78,ESE,113,6.0,10.5,51,0.00,,,0.00,WUHU216HW,2013-05-23 19:45:00,
2013-05-23 14:50:00,68.9,49.5,28.78,East,90,4.0,6.0,50,0.00,,,0.00,WUHU216HW,2013-05-23 19:50:00,
2013-05-23 14:55:00,69.0,49.7,28.78,SE,135,2.4,6.0,50,0.00,,,0.00,WUHU216HW,2013-05-23 19:55:00,
2013-05-23 15:00:00,69.9,49.9,28.78,ESE,113,1.5,5.8,49,0.00,,,0.00,WUHU216HW,2013-05-23 20:00:00,
2013-05-23 15:05:00,70.1,49.4,28.78,ESE,113,0.0,2.4,48,0.00,,,0.00,WUHU216HW,2013-05-23 20:05:00,
2013-05-23 15:10:00,70.3,49.0,28.78,NE,45,0.0,7.3,47,0.00,,,0.00,WUHU216HW,2013-05-23 20:10:00,
2013-05-23 15:15:00,70.3,49.0,28.78,ESE,113,0.0,7.3,47,0.00,,,0.00,WUHU216HW,2013-05-23 20:15:00,
2013-05-23 15:20:00,70.5,48.6,28.78,ENE,68,0.0,4.0,46,0.00,,,0.00,WUHU216HW,2013-05-23 20:20:00,
2013-05-23 15:25:00,70.8,48.9,28.78,SE,135,0.0,7.1,46,0.00,,,0.00,WUHU216HW,2013-05-23 20:25:00,
2013-05-23 15:30:00,70.8,48.3,28.78,SE,135,0.0,7.1,45,0.00,,,0.00,WUHU216HW,2013-05-23 20:30:00,
2013-05-23 15:35:00,71.0,48.5,28.78,East,90,3.5,4.9,45,0.00,,,0.00,WUHU216HW,2013-05-23 20:35:00,
2013-05-23 15:40:00,71.2,49.2,28.78,ENE,68,0.0,4.9,46,0.00,,,0.00,WUHU216HW,2013-05-23 20:40:00,
2013-05-23 15:45:00,71.4,49.4,28.78,ESE,113,9.3,9.3,46,0.00,,,0.00,WUHU216HW,2013-05-23 20:45:00,
2013-05-23 15:50:00,71.7,49.7,28.78,SE,135,0.0,9.3,46,0.00,,,0.00,WUHU216HW,2013-05-23 20:50:00,
2013-05-23 15:55:00,71.7,47.9,28.77,NE,45,8.2,8.2,43,0.00,,,0.00,WUHU216HW,2013-05-23 20:55:00,
2013-05-23 16:00:00,71.4,47.6,28.78,NE,45,0.0,8.2,43,0.00,,,0.00,WUHU216HW,2013-05-23 21:00:00,
2013-05-23 16:05:00,71.4,48.8,28.78,East,90,0.0,8.2,45,0.00,,,0.00,WUHU216HW,2013-05-23 21:05:00,
2013-05-23 16:10:00,71.7,48.5,28.77,East,90,6.0,7.3,44,0.00,,,0.00,WUHU216HW,2013-05-23 21:10:00,
2013-05-23 16:15:00,71.7,49.1,28.78,NE,45,7.1,7.1,45,0.00,,,0.00,WUHU216HW,2013-05-23 21:15:00,
2013-05-23 16:20:00,71.6,49.0,28.77,SE,135,0.0,7.6,45,0.00,,,0.00,WUHU216HW,2013-05-23 21:20:00,
2013-05-23 16:25:00,71.7,48.5,28.77,NE,45,6.7,7.6,44,0.00,,,0.00,WUHU216HW,2013-05-23 21:25:00,
2013-05-23 16:30:00,71.7,49.1,28.77,SE,135,4.0,6.7,45,0.00,,,0.00,WUHU216HW,2013-05-23 21:30:00,
2013-05-23 16:35:00,71.9,49.3,28.78,ESE,113,0.0,6.7,45,0.00,,,0.00,WUHU216HW,2013-05-23 21:35:00,
2013-05-23 16:40:00,72.1,49.4,28.77,NE,45,0.0,0.0,45,0.00,,,0.00,WUHU216HW,2013-05-23 21:40:00,
2013-05-23 16:45:00,71.9,49.3,28.77,ESE,113,0.0,4.0,45,0.00,,,0.00,WUHU216HW,2013-05-23 21:45:00,
2013-05-23 16:50:00,71.9,49.3,28.77,NE,45,0.0,4.0,45,0.00,,,0.00,WUHU216HW,2013-05-23 21:50:00,
2013-05-23 16:55:00,72.1,49.4,28.77,NNE,23,0.0,0.0,45,0.00,,,0.00,WUHU216HW,2013-05-23 21:55:00,
2013-05-23 17:00:00,72.1,49.4,28.77,NNE,23,0.0,0.0,45,0.00,,,0.00,WUHU216HW,2013-05-23 22:00:00,
2013-05-23 17:06:00,72.5,48.6,28.77,ENE,68,0.0,0.0,43,0.00,,,0.00,WUHU216HW,2013-05-23 22:06:00,
2013-05-23 17:11:00,72.6,49.3,28.77,SSE,158,2.2,2.2,44,0.00,,,0.00,WUHU216HW,2013-05-23 22:11:00,
2013-05-23 17:16:00,73.0,49.1,28.77,SSE,158,0.0,2.2,43,0.00,,,0.00,WUHU216HW,2013-05-23 22:16:00,
2013-05-23 17:21:00,73.2,49.2,28.77,East,90,0.0,0.0,43,0.00,,,0.00,WUHU216HW,2013-05-23 22:21:00,
2013-05-23 17:26:00,73.2,49.2,28.77,SSE,158,0.0,6.9,43,0.00,,,0.00,WUHU216HW,2013-05-23 22:26:00,
2013-05-23 17:31:00,73.5,50.1,28.77,SE,135,0.0,6.9,44,0.00,,,0.00,WUHU216HW,2013-05-23 22:31:00,
2013-05-23 17:36:00,73.9,49.9,28.77,NE,45,0.0,0.0,43,0.00,,,0.00,WUHU216HW,2013-05-23 22:36:00,
2013-05-23 17:41:00,74.1,50.1,28.77,SE,135,0.0,0.0,42,0.00,,,0.00,WUHU216HW,2013-05-23 22:41:00,
2013-05-23 17:46:00,73.9,48.7,28.77,NE,45,6.2,6.2,41,0.00,,,0.00,WUHU216HW,2013-05-23 22:46:00,
2013-05-23 17:51:00,73.7,49.1,28.77,NNE,23,7.3,7.3,42,0.00,,,0.00,WUHU216HW,2013-05-23 22:51:00,
2013-05-23 17:56:00,73.2,48.6,28.77,NE,45,0.0,7.3,42,0.00,,,0.00,WUHU216HW,2013-05-23 22:56:00,
2013-05-23 18:01:00,73.0,48.5,28.77,NE,45,0.0,0.0,42,0.00,,,0.00,WUHU216HW,2013-05-23 23:01:00,
2013-05-23 18:06:00,73.0,47.9,28.77,NE,45,7.6,7.6,41,0.00,,,0.00,WUHU216HW,2013-05-23 23:06:00,
2013-05-23 18:11:00,73.0,48.5,28.77,SE,135,0.0,7.6,42,0.00,,,0.00,WUHU216HW,2013-05-23 23:11:00,
2013-05-23 18:16:00,73.0,48.5,28.77,NNW,338,0.0,0.0,42,0.00,,,0.00,WUHU216HW,2013-05-23 23:16:00,
2013-05-23 18:21:00,73.0,48.5,28.77,NNW,338,0.0,0.6,42,0.00,,,0.00,WUHU216HW,2013-05-23 23:21:00,
2013-05-23 18:26:00,73.0,47.9,28.77,ESE,113,0.0,0.6,41,0.00,,,0.00,WUHU216HW,2013-05-23 23:26:00,
2013-05-23 18:31:00,72.5,47.4,28.77,ESE,113,0.0,0.0,41,0.00,,,0.00,WUHU216HW,2013-05-23 23:31:00,
2013-05-23 18:36:00,72.3,47.2,28.77,East,90,0.0,0.0,41,0.00,,,0.00,WUHU216HW,2013-05-23 23:36:00,
2013-05-23 18:42:00,71.7,47.3,28.77,NE,45,2.4,2.4,42,0.00,,,0.00,WUHU216HW,2013-05-23 23:42:00,
2013-05-23 18:47:00,71.4,46.4,28.77,ENE,68,0.0,2.4,41,0.00,,,0.00,WUHU216HW,2013-05-23 23:47:00,
2013-05-23 18:52:00,71.2,46.9,28.77,NNE,23,2.4,2.4,42,0.00,,,0.00,WUHU216HW,2013-05-23 23:52:00,
2013-05-23 18:57:00,70.8,46.5,28.77,North,0,0.0,2.4,42,0.00,,,0.00,WUHU216HW,2013-05-23 23:57:00,
2013-05-23 19:02:00,70.8,46.5,28.77,SE,135,0.0,6.4,42,0.00,,,0.00,WUHU216HW,2013-05-24 00:02:00,
2013-05-23 19:07:00,70.7,46.4,28.77,NE,45,0.0,6.4,42,0.00,,,0.00,WUHU216HW,2013-05-24 00:07:00,
2013-05-23 19:12:00,70.3,46.0,28.77,ESE,113,0.0,0.0,42,0.00,,,0.00,WUHU216HW,2013-05-24 00:12:00,
2013-05-23 19:17:00,70.1,45.9,28.77,ESE,113,0.0,0.0,42,0.00,,,0.00,WUHU216HW,2013-05-24 00:17:00,
2013-05-23 19:22:00,70.1,45.9,28.77,SE,135,0.0,0.0,42,0.00,,,0.00,WUHU216HW,2013-05-24 00:22:00,
2013-05-23 19:27:00,69.6,45.4,28.77,East,90,1.1,1.1,42,0.00,,,0.00,WUHU216HW,2013-05-24 00:27:00,
2013-05-23 19:32:00,69.6,45.4,28.77,ESE,113,0.0,1.1,42,0.00,,,0.00,WUHU216HW,2013-05-24 00:32:00,
2013-05-23 19:37:00,69.6,45.4,28.77,East,90,0.0,1.1,42,0.00,,,0.00,WUHU216HW,2013-05-24 00:37:00,
2013-05-23 19:42:00,69.4,45.8,28.77,ESE,113,0.0,0.0,43,0.00,,,0.00,WUHU216HW,2013-05-24 00:42:00,
2013-05-23 19:47:00,69.0,45.5,28.77,ESE,113,0.0,0.0,43,0.00,,,0.00,WUHU216HW,2013-05-24 00:47:00,
2013-05-23 19:52:00,69.0,45.5,28.77,ESE,113,0.0,0.0,43,0.00,,,0.00,WUHU216HW,2013-05-24 00:52:00,
2013-05-23 19:57:00,68.7,45.2,28.77,ESE,113,0.0,0.0,43,0.00,,,0.00,WUHU216HW,2013-05-24 00:57:00,
2013-05-23 20:02:00,68.5,45.6,28.77,ESE,113,0.0,0.0,44,0.00,,,0.00,WUHU216HW,2013-05-24 01:02:00,
2013-05-23 20:07:00,68.1,45.3,28.77,ESE,113,0.0,0.0,44,0.00,,,0.00,WUHU216HW,2013-05-24 01:07:00,
2013-05-23 20:12:00,67.8,45.6,28.77,ESE,113,0.0,0.0,45,0.00,,,0.00,WUHU216HW,2013-05-24 01:12:00,
2013-05-23 20:17:00,67.6,45.4,28.77,ESE,113,0.0,0.0,45,0.00,,,0.00,WUHU216HW,2013-05-24 01:17:00,
2013-05-23 20:22:00,67.2,45.1,28.77,ESE,113,0.0,0.0,45,0.00,,,0.00,WUHU216HW,2013-05-24 01:22:00,
2013-05-23 20:27:00,66.9,44.7,28.77,ESE,113,0.0,0.0,45,0.00,,,0.00,WUHU216HW,2013-05-24 01:27:00,
2013-05-23 20:32:00,66.5,45.0,28.77,ESE,113,0.0,0.0,46,0.00,,,0.00,WUHU216HW,2013-05-24 01:32:00,
2013-05-23 20:37:00,66.0,44.5,28.77,ESE,113,0.0,0.0,46,0.00,,,0.00,WUHU216HW,2013-05-24 01:37:00,
2013-05-23 20:42:00,65.6,44.6,28.77,ESE,113,0.0,0.0,47,0.00,,,0.00,WUHU216HW,2013-05-24 01:42:00,
2013-05-23 20:47:00,64.9,44.1,28.77,ESE,113,0.0,0.0,47,0.00,,,0.00,WUHU216HW,2013-05-24 01:47:00,
2013-05-23 20:52:00,64.2,44.0,28.77,ESE,113,0.0,0.0,48,0.00,,,0.00,WUHU216HW,2013-05-24 01:52:00,
2013-05-23 20:57:00,63.8,43.6,28.77,ESE,113,0.0,0.0,48,0.00,,,0.00,WUHU216HW,2013-05-24 01:57:00,
2013-05-23 21:02:00,63.5,43.9,28.77,ESE,113,0.0,0.0,49,0.00,,,0.00,WUHU216HW,2013-05-24 02:02:00,
2013-05-23 21:07:00,63.1,43.6,28.77,ESE,113,0.0,0.0,49,0.00,,,0.00,WUHU216HW,2013-05-24 02:07:00,
2013-05-23 21:12:00,62.7,43.2,28.78,ESE,113,0.0,0.0,49,0.00,,,0.00,WUHU216HW,2013-05-24 02:12:00,
2013-05-23 21:17:00,62.4,43.5,28.78,ESE,113,0.0,0.0,50,0.00,,,0.00,WUHU216HW,2013-05-24 02:17:00,
2013-05-23 21:22:00,62.2,42.8,28.77,ESE,113,0.0,0.0,49,0.00,,,0.00,WUHU216HW,2013-05-24 02:22:00,
2013-05-23 21:27:00,61.8,42.4,28.77,ESE,113,0.0,0.0,49,0.00,,,0.00,WUHU216HW,2013-05-24 02:27:00,
2013-05-23 21:32:00,61.7,42.8,28.78,ESE,113,0.0,0.0,50,0.00,,,0.00,WUHU216HW,2013-05-24 02:32:00,
2013-05-23 21:37:00,61.3,42.5,28.78,ESE,113,0.0,0.0,50,0.00,,,0.00,WUHU216HW,2013-05-24 02:37:00,
2013-05-23 21:42:00,61.1,42.4,28.78,ESE,113,0.0,0.0,50,0.00,,,0.00,WUHU216HW,2013-05-24 02:42:00,
2013-05-23 21:47:00,60.6,42.3,28.78,ESE,113,0.0,0.0,51,0.00,,,0.00,WUHU216HW,2013-05-24 02:47:00,
2013-05-23 21:52:00,60.4,42.7,28.78,ESE,113,0.0,0.0,52,0.00,,,0.00,WUHU216HW,2013-05-24 02:52:00,
2013-05-23 21:57:00,60.0,42.3,28.78,ESE,113,0.0,0.0,52,0.00,,,0.00,WUHU216HW,2013-05-24 02:57:00,
2013-05-23 22:02:00,59.9,42.2,28.79,ESE,113,0.0,0.0,52,0.00,,,0.00,WUHU216HW,2013-05-24 03:02:00,
2013-05-23 22:07:00,59.5,41.8,28.79,ESE,113,0.0,0.0,52,0.00,,,0.00,WUHU216HW,2013-05-24 03:07:00,
2013-05-23 22:12:00,59.0,41.8,28.79,ESE,113,0.0,0.0,53,0.00,,,0.00,WUHU216HW,2013-05-24 03:12:00,
2013-05-23 22:17:00,58.8,42.1,28.80,ESE,113,0.0,0.0,54,0.00,,,0.00,WUHU216HW,2013-05-24 03:17:00,
2013-05-23 22:22:00,58.8,42.6,28.80,ESE,113,0.0,0.0,55,0.00,,,0.00,WUHU216HW,2013-05-24 03:22:00,
2013-05-23 22:27:00,58.8,42.6,28.81,ESE,113,0.0,0.0,55,0.00,,,0.00,WUHU216HW,2013-05-24 03:27:00,
2013-05-23 22:32:00,58.6,42.4,28.81,ESE,113,0.0,0.0,55,0.00,,,0.00,WUHU216HW,2013-05-24 03:32:00,
2013-05-23 22:38:00,58.4,42.3,28.81,ESE,113,0.0,0.0,55,0.00,,,0.00,WUHU216HW,2013-05-24 03:38:00,
2013-05-23 22:43:00,58.4,42.3,28.81,ESE,113,0.0,0.0,55,0.00,,,0.00,WUHU216HW,2013-05-24 03:43:00,
2013-05-23 22:48:00,58.2,42.6,28.81,ESE,113,0.0,0.0,56,0.00,,,0.00,WUHU216HW,2013-05-24 03:48:00,
2013-05-23 22:53:00,58.1,42.4,28.81,ESE,113,0.0,0.0,56,0.00,,,0.00,WUHU216HW,2013-05-24 03:53:00,
2013-05-23 22:58:00,58.1,42.4,28.81,ESE,113,0.0,0.0,56,0.00,,,0.00,WUHU216HW,2013-05-24 03:58:00,
2013-05-23 23:01:00,57.9,42.2,28.81,ESE,113,0.0,0.0,57,0.00,,,0.00,WUHU216HW,2013-05-24 04:01:00,
2013-05-23 23:02:00,57.9,42.7,28.81,ESE,113,0.0,0.0,57,0.00,,,0.00,WUHU216HW,2013-05-24 04:02:00,
2013-05-23 23:07:00,57.7,42.1,28.82,ESE,113,0.0,0.0,56,0.00,,,0.00,WUHU216HW,2013-05-24 04:07:00,
2013-05-23 23:12:00,57.5,41.9,28.82,ESE,113,0.0,0.0,56,0.00,,,0.00,WUHU216HW,2013-05-24 04:12:00,
2013-05-23 23:17:00,57.3,41.8,28.82,ESE,113,0.0,0.0,56,0.00,,,0.00,WUHU216HW,2013-05-24 04:17:00,
2013-05-23 23:22:00,57.0,41.9,28.82,ESE,113,0.0,0.0,57,0.00,,,0.00,WUHU216HW,2013-05-24 04:22:00,
2013-05-23 23:27:00,56.8,42.2,28.83,ESE,113,0.0,0.0,58,0.00,,,0.00,WUHU216HW,2013-05-24 04:27:00,
2013-05-23 23:32:00,56.3,41.8,28.82,ESE,113,0.0,0.0,58,0.00,,,0.00,WUHU216HW,2013-05-24 04:32:00,
2013-05-23 23:37:00,56.1,41.9,28.83,ESE,113,0.0,0.0,59,0.00,,,0.00,WUHU216HW,2013-05-24 04:37:00,
2013-05-23 23:42:00,55.9,42.2,28.83,ESE,113,0.0,0.0,60,0.00,,,0.00,WUHU216HW,2013-05-24 04:42:00,
2013-05-23 23:47:00,55.5,42.0,28.83,ESE,113,0.0,0.0,60,0.00,,,0.00,WUHU216HW,2013-05-24 04:47:00,
2013-05-23 23:52:00,55.5,41.4,28.83,ESE,113,0.0,0.0,59,0.00,,,0.00,WUHU216HW,2013-05-24 04:52:00,
2013-05-23 23:57:00,55.5,41.9,28.83,ESE,113,0.0,0.0,60,0.00,,,0.00,WUHU216HW,2013-05-24 04:57:00,